Baileys Harbor, WI (54202)

4:28 PM CDT on April 30, 2017 (GMT -0500)
Peninsula Center | | Change Station

Elev 666 ft 45.05 °N, 87.21 °W | Updated 3 seconds ago

Overcast
Overcast
38.1 °F
Feels Like 38 °F
N
1.6
Wind Variable Wind from SE
Gusts 9.8 mph

Today
High -- | Low -- °F
--% Chance of Precip.
Yesterday
High -- | Low -- °F
Precip. -- in
Pressure 30.04 in
Visibility 10.0 miles
Clouds Overcast 700 ft
Windchill 38 °F
Dew Point 38 °F
Humidity 99%
Rainfall 0.11 in
Snow Depth Not available.
5:38 AM 7:53 PM
Waxing Crescent, 26% visible
METAR KSUE 302056Z AUTO 05013G21KT 10SM OVC007 03/02 A2995 RMK AO2 UPE30RAB30E46 SLP170 P0000 60001 T00280017 56030
Pressure 30.04 in
Visibility 10.0 miles
Clouds Overcast 700 ft
Windchill 38 °F
Dew Point 38 °F
Humidity 99%
Rainfall 0.11 in
Snow Depth Not available.
5:38 AM 7:53 PM
Waxing Crescent, 26% visible
METAR KSUE 302056Z AUTO 05013G21KT 10SM OVC007 03/02 A2995 RMK AO2 UPE30RAB30E46 SLP170 P0000 60001 T00280017 56030

Get Severe Weather Alerts

Thanks for signing up!

Be on the lookout for a verification email in your inbox.

You'll start receiving the daily forecast at 8 AM.

×

10-Day Weather Forecast

Almanac

Astronomy

Apr. 30, 2017 Rise Set
Actual Time
Civil Twilight
Nautical Twilight
Astronomical Twilight
Moon
Length of Visible Light
Length of Day
Tomorrow will be .
, % of the Moon is Illuminated

Today's Extremes

State Highs State Lows

Community

WunderPhotos

WunderBlog® & News

Nearby

Air Quality

  Air Quality AQ Index Pollutant
Not available.

Snow Depth

Station Depth Elevation

Earthquake Activity

City Distance Mag. Time & Date
Minimum magnitude displayed is 2.5.

Coastal Water Temperatures

Place Temperature

Stations

Nearby Weather Stations

Station Location Temp. Windchill Dew Point Humidity Wind Precip. Elev Updated Type
                   

Watches & Warnings

There are currently no watches in effect.